createdAt,value
2023-01-21T00:00:45.624Z,7.53
2023-01-21T00:03:13.015Z,6.72
2023-01-21T00:05:39.880Z,5.88
2023-01-21T00:08:06.389Z,6.10
2023-01-21T00:10:33.636Z,6.40
2023-01-21T00:13:00.135Z,6.63
2023-01-21T00:15:26.733Z,6.60
2023-01-21T00:17:54.055Z,6.82
2023-01-21T00:20:20.572Z,6.57
2023-01-21T00:22:47.311Z,6.28
2023-01-21T00:25:13.832Z,6.10
2023-01-21T00:27:40.597Z,7.35
2023-01-21T00:30:07.666Z,7.25
2023-01-21T00:32:34.201Z,7.55
2023-01-21T00:35:00.681Z,8.32
2023-01-21T00:37:27.129Z,7.50
2023-01-21T00:39:53.649Z,7.55
2023-01-21T00:42:20.146Z,9.18
2023-01-21T00:44:46.597Z,9.13
2023-01-21T00:47:13.295Z,9.57
2023-01-21T00:49:39.794Z,9.30
2023-01-21T00:52:06.370Z,10.32
2023-01-21T00:54:32.897Z,10.60
2023-01-21T00:56:59.589Z,10.52
2023-01-21T00:59:28.880Z,9.93
2023-01-21T01:01:55.802Z,10.23
2023-01-21T01:04:23.051Z,10.90
2023-01-21T01:06:49.579Z,10.40
2023-01-21T01:09:16.604Z,10.70
2023-01-21T01:11:43.187Z,10.77
2023-01-21T01:14:09.687Z,10.73
2023-01-21T01:16:36.165Z,9.68
2023-01-21T01:19:02.708Z,10.65
2023-01-21T01:21:29.366Z,10.82
2023-01-21T01:23:57.661Z,10.05
2023-01-21T01:26:24.228Z,10.15
2023-01-21T01:28:50.735Z,9.88
2023-01-21T01:31:18.780Z,10.55
2023-01-21T01:33:46.123Z,11.70
2023-01-21T01:36:18.496Z,10.38
2023-01-21T01:38:45.112Z,9.98
2023-01-21T01:41:17.414Z,11.35
2023-01-21T01:43:55.443Z,10.98
2023-01-21T01:46:23.907Z,10.15
2023-01-21T01:48:59.331Z,9.13
2023-01-21T01:51:56.729Z,9.98
2023-01-21T01:54:30.066Z,9.85
2023-01-21T01:56:59.506Z,9.90
2023-01-21T01:59:27.224Z,11.00
2023-01-21T02:01:53.938Z,12.05
2023-01-21T02:04:24.581Z,11.52
2023-01-21T02:06:53.644Z,10.57
2023-01-21T02:09:20.337Z,10.98
2023-01-21T02:11:47.092Z,10.80
2023-01-21T02:14:13.699Z,11.20
2023-01-21T02:17:00.142Z,11.02
2023-01-21T02:19:49.588Z,11.63
2023-01-21T02:22:52.869Z,10.88
2023-01-21T02:25:50.060Z,12.13
2023-01-21T02:28:31.528Z,12.20
2023-01-21T02:31:13.278Z,11.48
2023-01-21T02:33:51.790Z,12.02
2023-01-21T02:36:43.408Z,13.88
2023-01-21T02:39:35.354Z,12.77
2023-01-21T02:42:04.857Z,11.68
2023-01-21T02:44:40.393Z,12.35
2023-01-21T02:47:26.487Z,11.40
2023-01-21T02:50:23.414Z,11.75
2023-01-21T02:53:01.029Z,10.73
2023-01-21T02:55:35.296Z,11.13
2023-01-21T02:58:14.268Z,11.05
2023-01-21T03:00:43.656Z,10.63
2023-01-21T03:03:35.198Z,12.88
2023-01-21T03:06:39.103Z,11.25
2023-01-21T03:09:13.148Z,11.38
2023-01-21T03:11:44.123Z,11.48
2023-01-21T03:14:41.709Z,10.25
2023-01-21T03:17:34.123Z,10.68
2023-01-21T03:20:14.753Z,10.43
2023-01-21T03:22:43.136Z,10.95
2023-01-21T03:25:13.576Z,10.63
2023-01-21T03:27:43.868Z,10.65
2023-01-21T03:30:14.410Z,11.85
2023-01-21T03:32:45.704Z,11.55
2023-01-21T03:35:16.527Z,10.55
2023-01-21T03:37:55.452Z,10.85
2023-01-21T03:40:24.100Z,12.13
2023-01-21T03:42:51.602Z,11.00
2023-01-21T03:45:30.867Z,10.27
2023-01-21T03:48:04.488Z,10.80
2023-01-21T03:53:06.152Z,10.67
2023-01-21T03:55:34.824Z,10.63
2023-01-21T03:58:01.343Z,11.38
2023-01-21T04:00:28.138Z,10.48
2023-01-21T04:02:54.628Z,10.77
2023-01-21T04:05:21.098Z,10.45
2023-01-21T04:07:47.541Z,11.98
2023-01-21T04:10:14.146Z,10.65
2023-01-21T04:12:40.821Z,11.15
2023-01-21T04:15:07.957Z,11.07
2023-01-21T04:17:34.459Z,13.52
2023-01-21T04:20:00.929Z,12.77
2023-01-21T04:22:27.380Z,11.73
2023-01-21T04:24:53.933Z,12.02
2023-01-21T04:27:20.435Z,11.25
2023-01-21T04:29:46.894Z,11.43
2023-01-21T04:32:13.396Z,12.70
2023-01-21T04:34:39.830Z,12.00
2023-01-21T04:37:06.350Z,12.48
2023-01-21T04:39:32.876Z,11.50
2023-01-21T04:41:59.354Z,12.13
2023-01-21T04:44:25.838Z,13.10
2023-01-21T04:46:52.371Z,13.05
2023-01-21T04:49:18.894Z,13.35
2023-01-21T04:51:45.453Z,12.35
2023-01-21T04:54:12.057Z,13.38
2023-01-21T04:56:38.514Z,13.70
2023-01-21T04:59:05.017Z,12.60
2023-01-21T05:01:31.629Z,12.23
2023-01-21T05:03:58.195Z,14.23
2023-01-21T05:06:24.690Z,13.10
2023-01-21T05:08:51.124Z,12.30
2023-01-21T05:11:19.839Z,13.05
2023-01-21T05:13:46.667Z,12.82
2023-01-21T05:16:14.586Z,14.00
2023-01-21T05:18:41.649Z,13.10
2023-01-21T05:21:08.620Z,13.90
2023-01-21T05:23:35.228Z,13.13
2023-01-21T05:26:01.815Z,12.77
2023-01-21T05:28:28.317Z,12.57
2023-01-21T05:30:54.887Z,13.10
2023-01-21T05:33:26.177Z,13.18
2023-01-21T05:35:52.887Z,12.45
2023-01-21T05:38:19.394Z,11.98
2023-01-21T05:40:45.862Z,12.63
2023-01-21T05:43:12.304Z,13.75
2023-01-21T05:45:38.777Z,13.02
2023-01-21T05:48:05.702Z,13.32
2023-01-21T05:50:32.615Z,12.50
2023-01-21T05:52:59.151Z,12.25
2023-01-21T05:55:25.669Z,13.23
2023-01-21T05:57:52.125Z,13.77
2023-01-21T06:00:19.343Z,12.38
2023-01-21T06:02:45.997Z,12.45
2023-01-21T06:05:12.473Z,14.15
2023-01-21T06:07:38.906Z,11.98
2023-01-21T06:10:05.958Z,11.70
2023-01-21T06:12:32.570Z,12.48
2023-01-21T06:15:00.459Z,13.38
2023-01-21T06:17:27.081Z,13.10
2023-01-21T06:19:53.819Z,12.32
2023-01-21T06:22:20.540Z,11.85
2023-01-21T06:24:47.035Z,11.75
2023-01-21T06:27:13.679Z,12.50
2023-01-21T06:29:40.205Z,11.35
2023-01-21T06:32:07.161Z,11.63
2023-01-21T06:34:33.816Z,12.15
2023-01-21T06:37:00.319Z,12.35
2023-01-21T06:39:26.795Z,13.13
2023-01-21T06:41:55.253Z,13.40
2023-01-21T06:44:22.505Z,13.82
2023-01-21T06:47:00.005Z,13.35
2023-01-21T06:49:27.320Z,13.68
2023-01-21T06:51:53.868Z,13.52
2023-01-21T06:54:20.407Z,13.32
2023-01-21T06:56:47.623Z,13.48
2023-01-21T06:59:14.144Z,14.05
2023-01-21T07:01:40.730Z,13.05
2023-01-21T07:04:07.256Z,13.23
2023-01-21T07:06:33.784Z,13.85
2023-01-21T07:09:00.475Z,14.23
2023-01-21T07:11:26.945Z,14.57
2023-01-21T07:13:53.388Z,14.80
2023-01-21T07:16:19.936Z,13.93
2023-01-21T07:18:46.523Z,12.95
2023-01-21T07:21:13.071Z,13.82
2023-01-21T07:23:39.552Z,13.10
2023-01-21T07:26:06.538Z,14.07
2023-01-21T07:28:33.064Z,13.65
2023-01-21T07:31:00.622Z,14.25
2023-01-21T07:33:28.031Z,13.27
2023-01-21T07:35:54.710Z,14.60
2023-01-21T07:38:21.755Z,14.90
2023-01-21T07:40:51.351Z,15.05
2023-01-21T07:43:18.606Z,13.60
2023-01-21T07:45:45.513Z,12.75
2023-01-21T07:48:12.018Z,13.85
2023-01-21T07:50:38.527Z,13.05
2023-01-21T07:53:05.060Z,13.35
2023-01-21T07:55:31.918Z,11.13
2023-01-21T07:57:59.785Z,10.45
2023-01-21T08:00:27.273Z,10.05
2023-01-21T08:02:55.114Z,9.90
2023-01-21T08:05:26.235Z,10.50
2023-01-21T08:07:53.056Z,12.40
2023-01-21T08:10:22.145Z,11.77
2023-01-21T08:12:48.638Z,10.70
2023-01-21T08:15:15.444Z,9.02
2023-01-21T08:17:43.503Z,7.80
2023-01-21T08:20:11.539Z,8.38
2023-01-21T08:22:38.324Z,8.77
2023-01-21T08:25:05.975Z,10.40
2023-01-21T08:27:33.175Z,10.25
2023-01-21T08:29:59.695Z,9.85
2023-01-21T08:32:26.272Z,10.18
2023-01-21T08:34:52.783Z,9.27
2023-01-21T08:37:19.296Z,9.35
2023-01-21T08:39:45.782Z,10.10
2023-01-21T08:42:12.270Z,9.10
2023-01-21T08:44:38.812Z,9.27
2023-01-21T08:47:05.335Z,9.30
2023-01-21T08:49:31.807Z,10.23
2023-01-21T08:51:58.619Z,10.25
2023-01-21T08:54:25.415Z,9.43
2023-01-21T08:56:51.963Z,11.05
2023-01-21T08:59:20.624Z,10.93
2023-01-21T09:01:47.088Z,10.63
2023-01-21T09:04:13.607Z,10.95
2023-01-21T09:06:40.058Z,10.18
2023-01-21T09:09:06.513Z,10.10
2023-01-21T09:11:34.053Z,9.80
2023-01-21T09:14:03.501Z,10.30
2023-01-21T09:16:35.345Z,9.35
2023-01-21T09:19:02.133Z,10.05
2023-01-21T09:21:29.544Z,9.45
2023-01-21T09:23:56.789Z,8.98
2023-01-21T09:26:24.048Z,8.02
2023-01-21T09:28:55.748Z,8.50
2023-01-21T09:31:26.291Z,9.88
2023-01-21T09:33:57.143Z,8.88
2023-01-21T09:36:25.885Z,8.80
2023-01-21T09:38:52.543Z,8.00
2023-01-21T09:42:00.599Z,8.52
2023-01-21T09:44:37.763Z,10.00
2023-01-21T09:47:22.153Z,9.75
2023-01-21T09:49:53.468Z,10.13
2023-01-21T09:52:20.329Z,10.68
2023-01-21T09:54:46.990Z,9.90
2023-01-21T09:57:28.703Z,10.23
2023-01-21T10:00:05.712Z,9.45
2023-01-21T10:02:48.135Z,10.20
2023-01-21T10:05:43.734Z,9.48
2023-01-21T10:08:32.382Z,10.02
2023-01-21T10:11:44.606Z,10.70
2023-01-21T10:14:33.863Z,11.57
2023-01-21T10:17:19.511Z,10.45
2023-01-21T10:19:52.370Z,10.55
2023-01-21T10:22:25.721Z,10.10
2023-01-21T10:25:00.598Z,10.02
2023-01-21T10:27:31.435Z,9.75
2023-01-21T10:30:02.770Z,10.25
2023-01-21T10:32:29.348Z,9.43
2023-01-21T10:34:57.729Z,9.98
2023-01-21T10:37:41.097Z,9.45
2023-01-21T10:40:43.721Z,9.90
2023-01-21T10:43:22.486Z,9.30
2023-01-21T10:46:04.204Z,9.05
2023-01-21T10:48:38.964Z,9.70
2023-01-21T10:51:13.948Z,9.68
2023-01-21T10:54:17.438Z,8.85
2023-01-21T10:56:53.012Z,9.10
2023-01-21T10:59:24.867Z,9.32
2023-01-21T11:01:59.938Z,9.88
2023-01-21T11:04:28.306Z,9.98
2023-01-21T11:07:00.540Z,10.02
2023-01-21T11:09:31.460Z,10.85
2023-01-21T11:11:58.071Z,10.55
2023-01-21T11:14:27.758Z,11.20
2023-01-21T11:16:54.788Z,10.80
2023-01-21T11:19:27.689Z,9.48
2023-01-21T11:22:19.643Z,9.35
2023-01-21T11:24:50.657Z,9.65
2023-01-21T11:27:34.861Z,7.70
2023-01-21T11:30:01.974Z,7.75
2023-01-21T11:32:30.941Z,6.97
2023-01-21T11:35:22.608Z,7.97
2023-01-21T11:37:49.065Z,7.18
2023-01-21T11:40:25.216Z,7.03
2023-01-21T11:42:54.652Z,6.75
2023-01-21T11:45:33.502Z,5.78
2023-01-21T11:48:01.323Z,6.00
2023-01-21T11:50:30.531Z,6.00
2023-01-21T11:53:17.667Z,5.00
2023-01-21T11:55:51.005Z,4.18
2023-01-21T11:58:33.663Z,4.07
2023-01-21T12:01:07.950Z,3.58
2023-01-21T12:03:34.439Z,3.35
2023-01-21T12:06:01.963Z,3.50
2023-01-21T12:08:35.828Z,3.83
2023-01-21T12:11:04.666Z,4.80
2023-01-21T12:13:33.738Z,5.32
2023-01-21T12:16:12.395Z,4.50
2023-01-21T12:18:44.692Z,4.47
2023-01-21T12:21:33.445Z,4.22
2023-01-21T12:24:09.045Z,4.18
2023-01-21T12:26:54.545Z,4.68
2023-01-21T12:29:26.872Z,4.60
2023-01-21T12:32:05.813Z,5.53
2023-01-21T12:34:40.068Z,5.00
2023-01-21T12:37:24.796Z,4.95
2023-01-21T12:39:54.370Z,4.82
2023-01-21T12:42:44.609Z,5.97
2023-01-21T12:45:16.842Z,5.20
2023-01-21T12:47:52.454Z,5.28
2023-01-21T12:50:18.896Z,5.90
2023-01-21T12:53:04.060Z,5.78
2023-01-21T12:55:55.799Z,6.05
2023-01-21T12:58:27.291Z,8.75
2023-01-21T13:00:55.463Z,8.07
2023-01-21T13:03:51.565Z,6.20
2023-01-21T13:06:42.569Z,6.70
2023-01-21T13:09:25.030Z,7.18
2023-01-21T13:11:56.701Z,6.93
2023-01-21T13:14:28.342Z,6.90
2023-01-21T13:17:00.878Z,9.00
2023-01-21T13:19:27.438Z,8.82
2023-01-21T13:22:26.008Z,11.05
2023-01-21T13:25:29.098Z,10.82
2023-01-21T13:28:21.721Z,9.52
2023-01-21T13:30:50.914Z,9.70
2023-01-21T13:33:32.501Z,9.52
2023-01-21T13:36:10.371Z,8.25
2023-01-21T13:39:10.083Z,9.63
2023-01-21T13:41:45.944Z,8.55
2023-01-21T13:44:27.604Z,8.68
2023-01-21T13:47:12.742Z,9.40
2023-01-21T13:50:04.378Z,8.65
2023-01-21T13:52:51.381Z,8.20
2023-01-21T13:55:42.276Z,10.02
2023-01-21T13:58:22.742Z,9.93
2023-01-21T14:01:44.436Z,9.25
2023-01-21T14:04:37.572Z,9.70
2023-01-21T14:07:13.094Z,10.10
2023-01-21T14:10:02.058Z,9.50
2023-01-21T14:12:37.546Z,10.35
2023-01-21T14:15:09.552Z,10.48
2023-01-21T14:18:05.293Z,10.45
2023-01-21T14:20:38.388Z,12.18
2023-01-21T14:23:20.422Z,12.05
2023-01-21T14:25:52.503Z,14.07
2023-01-21T14:28:37.781Z,13.02
2023-01-21T14:31:21.264Z,11.90
2023-01-21T14:34:01.958Z,11.45
2023-01-21T14:36:54.707Z,11.75
2023-01-21T14:39:41.114Z,10.77
2023-01-21T14:42:17.793Z,10.68
2023-01-21T14:44:44.462Z,14.27
2023-01-21T14:47:24.473Z,10.98
2023-01-21T14:49:53.589Z,7.80
2023-01-21T14:52:32.087Z,7.50
2023-01-21T14:54:59.911Z,6.85
2023-01-21T14:57:36.832Z,6.70
2023-01-21T15:00:12.685Z,6.90
2023-01-21T15:02:44.798Z,6.85
2023-01-21T15:05:11.297Z,6.88
2023-01-21T15:07:43.729Z,6.50
2023-01-21T15:10:25.777Z,6.22
2023-01-21T15:12:55.881Z,5.82
2023-01-21T15:15:40.803Z,5.22
2023-01-21T15:18:09.984Z,4.78
2023-01-21T15:20:42.643Z,5.45
2023-01-21T15:23:18.157Z,4.63
2023-01-21T15:26:03.445Z,5.05
2023-01-21T15:28:40.351Z,4.97
2023-01-21T15:31:10.861Z,4.68
2023-01-21T15:33:45.937Z,5.15
2023-01-21T15:36:32.948Z,4.60
2023-01-21T15:39:12.589Z,5.80
2023-01-21T15:41:59.973Z,7.70
2023-01-21T15:44:47.825Z,17.67
2023-01-21T15:47:17.291Z,13.52
2023-01-21T15:50:30.240Z,15.52
2023-01-21T15:53:38.183Z,9.85
2023-01-21T15:56:23.043Z,11.05
2023-01-21T15:59:07.616Z,13.25
2023-01-21T16:01:39.092Z,12.63
2023-01-21T16:04:08.274Z,11.68
2023-01-21T16:06:50.533Z,12.25
2023-01-21T16:09:37.625Z,12.45
2023-01-21T16:12:10.319Z,11.20
2023-01-21T16:14:52.604Z,14.33
2023-01-21T16:17:35.029Z,12.73
2023-01-21T16:20:04.491Z,13.13
2023-01-21T16:22:35.902Z,12.10
2023-01-21T16:25:07.793Z,13.80
2023-01-21T16:27:36.005Z,14.05
2023-01-21T16:30:12.048Z,11.82
2023-01-21T16:32:39.113Z,12.25
2023-01-21T16:35:06.190Z,12.88
2023-01-21T16:37:33.643Z,12.13
2023-01-21T16:40:40.265Z,14.30
2023-01-21T16:43:22.923Z,13.60
2023-01-21T16:46:01.199Z,13.43
2023-01-21T16:48:33.345Z,13.20
2023-01-21T16:51:01.178Z,13.02
2023-01-21T16:53:27.780Z,13.07
2023-01-21T16:55:59.192Z,14.02
2023-01-21T16:58:31.683Z,14.90
2023-01-21T17:01:01.604Z,13.93
2023-01-21T17:03:28.815Z,13.40
2023-01-21T17:05:59.208Z,13.10
2023-01-21T17:08:26.488Z,12.95
2023-01-21T17:11:07.186Z,13.00
2023-01-21T17:13:34.542Z,15.10
2023-01-21T17:16:03.025Z,15.25
2023-01-21T17:18:29.538Z,15.27
2023-01-21T17:21:01.283Z,14.65
2023-01-21T17:23:32.143Z,15.27
2023-01-21T17:26:16.752Z,14.73
2023-01-21T17:28:57.755Z,15.60
2023-01-21T17:31:29.877Z,16.15
2023-01-21T17:34:06.779Z,18.08
2023-01-21T17:36:35.847Z,16.05
2023-01-21T17:39:03.794Z,17.58
2023-01-21T17:41:33.622Z,16.50
2023-01-21T17:44:03.702Z,16.20
2023-01-21T17:46:30.764Z,17.70
2023-01-21T17:49:08.866Z,17.75
2023-01-21T17:51:35.885Z,17.35
2023-01-21T17:54:05.882Z,17.58
2023-01-21T17:56:37.357Z,17.73
2023-01-21T17:59:04.371Z,17.17
2023-01-21T18:01:31.330Z,18.60
2023-01-21T18:03:57.861Z,16.83
2023-01-21T18:06:28.854Z,17.10
2023-01-21T18:08:57.060Z,16.40
2023-01-21T18:11:23.614Z,14.55
2023-01-21T18:13:50.235Z,17.23
2023-01-21T18:16:17.011Z,16.85
2023-01-21T18:18:43.697Z,15.25
2023-01-21T18:21:19.132Z,14.93
2023-01-21T18:23:46.357Z,15.48
2023-01-21T18:26:28.531Z,16.17
2023-01-21T18:28:55.009Z,14.93
2023-01-21T18:31:22.655Z,16.88
2023-01-21T18:33:49.213Z,16.92
2023-01-21T18:36:15.692Z,16.95
2023-01-21T18:38:42.253Z,16.35
2023-01-21T18:41:11.515Z,16.85
2023-01-21T18:43:38.048Z,16.65
2023-01-21T18:46:11.015Z,14.77
2023-01-21T18:48:37.711Z,15.25
2023-01-21T18:51:04.676Z,17.00
2023-01-21T18:53:31.276Z,15.90
2023-01-21T18:55:57.799Z,15.93
2023-01-21T18:58:24.390Z,16.25
2023-01-21T19:00:51.130Z,14.73
2023-01-21T19:03:17.851Z,15.90
2023-01-21T19:05:47.681Z,16.67
2023-01-21T19:08:18.771Z,15.80
2023-01-21T19:10:45.291Z,15.93
2023-01-21T19:13:12.300Z,21.23
2023-01-21T19:15:39.088Z,17.23
2023-01-21T19:18:16.504Z,16.73
2023-01-21T19:20:43.198Z,14.88
2023-01-21T19:23:17.612Z,17.38
2023-01-21T19:25:54.736Z,15.15
2023-01-21T19:28:22.521Z,15.88
2023-01-21T19:30:50.589Z,15.93
2023-01-21T19:33:17.474Z,16.65
2023-01-21T19:35:45.397Z,14.93
2023-01-21T19:38:16.327Z,15.18
2023-01-21T19:40:43.085Z,14.60
2023-01-21T19:43:18.033Z,14.95
2023-01-21T19:45:45.160Z,15.57
2023-01-21T19:48:14.036Z,15.52
2023-01-21T19:50:40.897Z,15.43
2023-01-21T19:53:10.374Z,16.33
2023-01-21T19:55:39.051Z,16.67
2023-01-21T19:58:17.788Z,14.63
2023-01-21T20:00:44.323Z,15.73
2023-01-21T20:03:14.053Z,15.65
2023-01-21T20:05:40.893Z,17.50
2023-01-21T20:08:13.193Z,14.80
2023-01-21T20:10:40.875Z,14.93
2023-01-21T20:13:14.869Z,16.15
2023-01-21T20:15:43.700Z,17.77
2023-01-21T20:18:18.348Z,17.63
2023-01-21T20:20:44.873Z,17.02
2023-01-21T20:23:15.071Z,18.25
2023-01-21T20:25:46.389Z,16.52
2023-01-21T20:28:30.115Z,16.75
2023-01-21T20:30:56.854Z,16.23
2023-01-21T20:33:26.432Z,15.45
2023-01-21T20:35:55.549Z,16.73
2023-01-21T20:38:31.461Z,16.60
2023-01-21T20:40:58.746Z,15.55
2023-01-21T20:43:25.671Z,14.35
2023-01-21T20:45:53.033Z,15.65
2023-01-21T20:48:25.374Z,15.75
2023-01-21T20:50:52.319Z,15.20
2023-01-21T20:53:19.376Z,15.02
2023-01-21T20:55:48.227Z,14.73
2023-01-21T20:58:16.722Z,14.88
2023-01-21T21:00:44.485Z,14.40
2023-01-21T21:03:12.841Z,14.98
2023-01-21T21:05:39.415Z,14.07
2023-01-21T21:08:05.871Z,14.07
2023-01-21T21:10:36.214Z,15.65
2023-01-21T21:13:04.055Z,14.80
2023-01-21T21:15:33.351Z,14.45
2023-01-21T21:18:00.527Z,14.23
2023-01-21T21:20:36.890Z,14.10
2023-01-21T21:23:04.266Z,13.75
2023-01-21T21:25:33.167Z,14.07
2023-01-21T21:27:59.660Z,14.23
2023-01-21T21:30:29.186Z,14.07
2023-01-21T21:32:57.457Z,13.82
2023-01-21T21:35:28.556Z,15.00
2023-01-21T21:37:57.982Z,12.98
2023-01-21T21:40:26.623Z,13.38
2023-01-21T21:43:11.730Z,13.82
2023-01-21T21:45:40.828Z,15.32
2023-01-21T21:48:39.056Z,15.80
2023-01-21T21:51:10.192Z,13.60
2023-01-21T21:53:38.162Z,14.95
2023-01-21T21:56:06.619Z,13.80
2023-01-21T21:58:33.273Z,15.02
2023-01-21T22:01:13.553Z,14.45
2023-01-21T22:03:40.561Z,13.80
2023-01-21T22:06:08.039Z,13.93
2023-01-21T22:08:37.228Z,12.90
2023-01-21T22:11:07.054Z,13.95
2023-01-21T22:13:37.395Z,13.88
2023-01-21T22:16:04.915Z,13.10
2023-01-21T22:18:31.953Z,13.23
2023-01-21T22:21:07.463Z,12.98
2023-01-21T22:23:35.635Z,13.27
2023-01-21T22:26:04.482Z,12.30
2023-01-21T22:28:31.588Z,12.20
2023-01-21T22:31:16.177Z,13.18
2023-01-21T22:33:43.434Z,12.32
2023-01-21T22:36:13.036Z,13.02
2023-01-21T22:38:40.900Z,12.23
2023-01-21T22:41:08.671Z,12.20
2023-01-21T22:43:35.350Z,12.18
2023-01-21T22:46:02.217Z,11.90
2023-01-21T22:48:30.416Z,12.48
2023-01-21T22:50:59.361Z,12.68
2023-01-21T22:53:27.149Z,14.52
2023-01-21T22:55:57.665Z,13.57
2023-01-21T22:58:25.470Z,12.50
2023-01-21T23:00:53.046Z,13.00
2023-01-21T23:03:20.337Z,11.68
2023-01-21T23:05:47.230Z,12.95
2023-01-21T23:08:14.621Z,12.52
2023-01-21T23:10:42.532Z,12.85
2023-01-21T23:13:16.617Z,13.38
2023-01-21T23:15:47.194Z,11.75
2023-01-21T23:18:15.871Z,12.10
2023-01-21T23:20:43.290Z,12.30
2023-01-21T23:23:11.908Z,12.48
2023-01-21T23:25:42.675Z,12.73
2023-01-21T23:28:09.663Z,12.75
2023-01-21T23:30:36.811Z,12.88
2023-01-21T23:33:03.757Z,12.65
2023-01-21T23:35:31.118Z,12.52
2023-01-21T23:37:57.944Z,12.45
2023-01-21T23:40:24.579Z,12.68
2023-01-21T23:42:51.254Z,12.20
2023-01-21T23:45:17.828Z,12.52
2023-01-21T23:47:44.560Z,12.52
2023-01-21T23:50:13.402Z,12.75
2023-01-21T23:52:40.543Z,13.15
2023-01-21T23:55:08.970Z,12.32
2023-01-21T23:57:35.641Z,11.55
